Time;durP1;ratioP1;P1;durP2;ratioP2;P2;SDS_P1;SDS_P2;PMS_P1;PMS_P2;Temp;Humidity;BMP_temperature;BMP_pressure;BME280_temperature;BME280_humidity;BME280_pressure;Samples;Min_cycle;Max_cycle;Signal;HPM_P1;HPM_P2
2022/05/29 00:00:12;;;;;;;22.48;12.25;;;;;;;16.11;88.53;93599.66;5106388;28;20028;-74
2022/05/29 00:02:38;;;;;;;31.48;13.10;;;;;;;16.10;89.25;93592.69;5106260;28;20280;-74
2022/05/29 00:05:04;;;;;;;29.67;13.25;;;;;;;16.12;89.90;93587.75;5106410;28;20024;-74
2022/05/29 00:07:30;;;;;;;30.88;13.60;;;;;;;16.16;90.33;93569.78;5106256;28;20098;-74
2022/05/29 00:09:55;;;;;;;27.80;13.27;;;;;;;16.17;90.81;93574.81;5106328;28;20028;-74
2022/05/29 00:12:22;;;;;;;29.75;13.05;;;;;;;16.24;90.62;93583.03;5105994;28;20073;-74
2022/05/29 00:14:48;;;;;;;24.63;13.70;;;;;;;16.33;89.96;93598.16;5106512;28;20226;-74
2022/05/29 00:17:16;;;;;;;26.00;13.00;;;;;;;16.36;89.57;93589.34;5106488;28;20020;-74
2022/05/29 00:19:41;;;;;;;27.20;13.50;;;;;;;16.43;89.56;93578.75;5105932;28;20027;-74
2022/05/29 00:22:10;;;;;;;21.20;12.25;;;;;;;16.55;89.60;93586.66;5106144;28;20051;-75
2022/05/29 00:24:36;;;;;;;18.85;12.23;;;;;;;16.68;89.33;93573.03;5106023;28;20020;-74
2022/05/29 00:27:02;;;;;;;30.85;12.15;;;;;;;16.76;89.10;93572.03;5105815;28;20026;-72
2022/05/29 00:29:27;;;;;;;23.58;11.30;;;;;;;16.83;87.95;93534.47;5105871;28;20257;-74
2022/05/29 00:31:54;;;;;;;18.90;10.23;;;;;;;16.94;87.09;93505.81;5105990;28;20099;-74
2022/05/29 00:34:19;;;;;;;22.27;9.75;;;;;;;17.01;86.54;93500.53;5105927;28;20046;-74
2022/05/29 00:36:45;;;;;;;19.77;10.15;;;;;;;17.10;85.60;93492.22;5105792;28;20318;-73
2022/05/29 00:39:13;;;;;;;17.17;9.35;;;;;;;17.15;85.23;93493.81;5105528;28;20087;-74
2022/05/29 00:41:39;;;;;;;23.95;10.55;;;;;;;17.21;84.32;93489.66;5105561;28;20457;-74
2022/05/29 00:44:20;;;;;;;16.33;8.85;;;;;;;17.27;83.94;93492.81;5105680;28;20026;-74
2022/05/29 00:46:55;;;;;;;18.20;9.13;;;;;;;17.32;83.44;93474.44;5105748;28;20032;-73
2022/05/29 00:49:27;;;;;;;18.73;8.98;;;;;;;17.36;82.83;93482.53;5105584;28;20323;-74
2022/05/29 00:51:54;;;;;;;;;;;;;;;17.36;82.95;93514.88;5106033;28;20065;-74
2022/05/29 00:54:21;;;;;;;18.00;8.80;;;;;;;17.34;82.20;93544.88;5105520;28;19903;-73
2022/05/29 00:56:46;;;;;;;17.35;7.32;;;;;;;17.33;82.00;93500.22;5105563;28;20085;-74
2022/05/29 00:59:20;;;;;;;15.88;6.60;;;;;;;17.30;81.21;93479.41;5105259;28;20323;-73
2022/05/29 01:01:45;;;;;;;24.73;7.75;;;;;;;17.30;81.11;93473.22;5105566;28;20095;-73
2022/05/29 01:04:12;;;;;;;19.77;6.55;;;;;;;17.27;80.74;93466.66;5104576;28;20057;-73
2022/05/29 01:06:38;;;;;;;17.17;5.93;;;;;;;17.27;79.94;93458.59;5105383;28;20050;-73
2022/05/29 01:09:07;;;;;;;16.20;6.30;;;;;;;17.28;79.56;93437.81;5105203;28;20016;-73
2022/05/29 01:11:50;;;;;;;13.75;5.82;;;;;;;17.26;79.28;93440.88;5105108;28;20024;-73
2022/05/29 01:14:19;;;;;;;18.05;5.43;;;;;;;17.26;78.34;93462.44;5105267;28;20034;-73
2022/05/29 01:17:07;;;;;;;11.05;5.05;;;;;;;17.23;77.50;93473.91;5105175;28;20187;-74
2022/05/29 01:19:38;;;;;;;14.68;3.72;;;;;;;17.14;76.64;93458.03;5104919;28;20039;-75
2022/05/29 01:22:22;;;;;;;9.70;3.77;;;;;;;17.07;75.57;93476.00;5105057;28;20062;-76
2022/05/29 01:25:09;;;;;;;8.10;3.45;;;;;;;17.01;74.58;93489.00;5104950;28;20026;-76
2022/05/29 01:28:12;;;;;;;12.80;3.78;;;;;;;16.93;75.07;93436.97;5086660;28;20024;-76
2022/05/29 01:30:44;;;;;;;21.98;3.70;;;;;;;16.84;76.11;93447.22;5104758;28;20036;-75
2022/05/29 01:33:18;;;;;;;13.38;3.75;;;;;;;16.79;76.73;93458.25;5104761;28;20023;-74
2022/05/29 01:35:51;;;;;;;12.48;4.25;;;;;;;16.75;77.15;93449.34;5104724;28;20036;-73
2022/05/29 01:38:26;;;;;;;18.20;3.20;;;;;;;16.77;77.10;93447.88;5104751;28;20058;-74
2022/05/29 01:41:18;;;;;;;11.55;2.90;;;;;;;16.76;76.59;93442.84;5104389;28;20107;-74
2022/05/29 01:43:53;;;;;;;9.73;2.73;;;;;;;16.68;75.22;93435.81;5104505;28;20091;-74
2022/05/29 01:46:32;;;;;;;6.85;2.28;;;;;;;16.61;74.22;93439.94;5104656;28;20019;-73
2022/05/29 01:49:04;;;;;;;15.35;3.05;;;;;;;16.53;72.83;93432.91;5104418;28;20062;-74
2022/05/29 01:51:46;;;;;;;18.85;2.92;;;;;;;16.50;72.44;93436.28;5104296;28;20041;-74
2022/05/29 01:54:23;;;;;;;10.90;3.10;;;;;;;16.41;72.02;93420.41;5104345;28;20046;-74
2022/05/29 01:56:54;;;;;;;6.60;2.60;;;;;;;16.39;72.16;93424.59;5104537;28;20087;-74
2022/05/29 01:59:35;;;;;;;13.02;2.88;;;;;;;16.40;72.31;93415.38;5104273;28;20074;-74
2022/05/29 02:02:06;;;;;;;8.07;2.20;;;;;;;16.41;72.70;93416.94;5104229;28;20118;-74
2022/05/29 02:04:37;;;;;;;10.60;2.53;;;;;;;16.41;72.30;93419.63;5104257;28;20077;-74
2022/05/29 02:10:06;;;;;;;13.18;3.05;;;;;;;16.46;72.23;93416.63;5104275;28;20403;-74
2022/05/29 02:12:32;;;;;;;;;;;;;;;16.46;72.78;93416.63;5104381;28;20096;-74
2022/05/29 02:15:12;;;;;;;6.90;2.05;;;;;;;16.41;71.00;93412.34;5102883;28;19904;-74
2022/05/29 02:17:44;;;;;;;7.43;2.22;;;;;;;16.42;71.18;93399.66;5103884;28;20084;-72
2022/05/29 02:20:23;;;;;;;5.35;1.85;;;;;;;16.40;70.66;93400.00;5103756;28;20087;-73
2022/05/29 02:22:54;;;;;;;9.73;2.15;;;;;;;16.43;70.40;93401.22;5104047;28;20065;-73
2022/05/29 02:25:24;;;;;;;11.20;3.67;;;;;;;16.44;70.67;93402.75;5103941;28;20020;-73
2022/05/29 02:28:08;;;;;;;14.25;2.38;;;;;;;16.53;71.83;93402.53;5103541;28;20337;-73
2022/05/29 02:30:49;;;;;;;9.93;2.95;;;;;;;16.47;74.16;93401.28;5103637;28;20026;-73
2022/05/29 02:33:18;;;;;;;7.15;2.45;;;;;;;16.37;74.45;93391.91;5103563;28;20289;-73
2022/05/29 02:36:23;;;;;;;12.80;3.10;;;;;;;16.36;75.93;93395.72;5103635;28;20050;-73
2022/05/29 02:39:00;;;;;;;13.95;2.80;;;;;;;16.33;75.51;93369.56;5103660;28;20099;-73
2022/05/29 02:41:43;;;;;;;9.95;2.28;;;;;;;16.32;75.86;93376.06;5103387;28;20103;-73
2022/05/29 02:44:54;;;;;;;7.22;3.10;;;;;;;16.34;75.97;93357.66;5103531;28;20192;-73
2022/05/29 02:47:31;;;;;;;15.90;2.45;;;;;;;16.32;75.84;93360.69;5075175;28;20035;-73
2022/05/29 02:49:56;;;;;;;6.28;2.28;;;;;;;16.36;74.14;93352.69;5103254;28;20023;-73
2022/05/29 02:52:22;;;;;;;12.48;2.38;;;;;;;16.41;73.68;93349.72;5103335;28;20026;-73
2022/05/29 02:54:47;;;;;;;9.73;2.45;;;;;;;16.39;75.22;93365.44;5103263;28;20023;-73
2022/05/29 02:57:13;;;;;;;6.82;2.95;;;;;;;16.36;75.60;93364.22;5103216;28;20027;-74
2022/05/29 02:59:43;;;;;;;12.13;3.67;;;;;;;16.30;76.58;93359.53;5103283;28;20070;-73
2022/05/29 03:02:26;;;;;;;11.52;4.03;;;;;;;16.20;77.79;93366.28;5103188;28;20016;-73
2022/05/29 03:05:16;;;;;;;15.60;4.63;;;;;;;16.01;79.29;93359.06;5103369;28;20256;-73
2022/05/29 03:07:50;;;;;;;9.10;4.15;;;;;;;15.98;79.93;93354.44;5103082;28;20035;-74
2022/05/29 03:10:20;;;;;;;13.30;4.43;;;;;;;15.86;80.63;93335.78;5103113;28;20048;-73
2022/05/29 03:13:13;;;;;;;20.23;5.50;;;;;;;15.77;81.35;93339.50;5103036;28;20024;-73
2022/05/29 03:16:03;;;;;;;14.90;4.70;;;;;;;15.72;82.53;93341.66;5103142;28;20206;-74
2022/05/29 03:18:46;;;;;;;25.02;5.60;;;;;;;15.68;82.85;93335.47;5103027;28;20024;-74
2022/05/29 03:21:25;;;;;;;17.77;5.50;;;;;;;15.63;82.48;93333.81;5103002;28;20024;-74
2022/05/29 03:24:02;;;;;;;18.88;5.10;;;;;;;15.59;82.81;93327.59;5103123;28;20103;-74
2022/05/29 03:26:58;;;;;;;15.88;4.93;;;;;;;15.62;83.12;93330.38;5104256;28;20225;-74
2022/05/29 03:29:32;;;;;;;15.60;5.97;;;;;;;15.69;82.52;93324.34;5107366;28;20210;-74
2022/05/29 03:31:58;;;;;;;13.85;5.40;;;;;;;15.71;82.70;93330.13;5107051;28;20065;-74
2022/05/29 03:34:23;;;;;;;18.35;5.90;;;;;;;15.75;82.82;93325.66;5107119;28;20052;-74
2022/05/29 03:36:50;;;;;;;17.90;5.85;;;;;;;15.79;82.40;93331.06;5107074;28;20020;-74
2022/05/29 03:39:17;;;;;;;16.48;5.78;;;;;;;15.80;82.61;93328.03;5106764;28;20318;-74
2022/05/29 03:41:48;;;;;;;20.42;6.35;;;;;;;15.82;82.40;93325.75;5106828;28;20066;-74
2022/05/29 03:44:16;;;;;;;17.33;5.93;;;;;;;15.82;82.43;93333.03;5106693;28;20031;-75
2022/05/29 03:46:43;;;;;;;13.00;5.82;;;;;;;15.86;81.63;93335.78;5106908;28;20031;-73
2022/05/29 03:49:10;;;;;;;14.95;5.72;;;;;;;15.91;81.48;93332.78;5106629;28;20053;-73
2022/05/29 03:51:37;;;;;;;10.27;4.88;;;;;;;15.97;81.71;93334.03;5106745;28;20022;-74
2022/05/29 03:54:04;;;;;;;9.93;4.57;;;;;;;16.04;81.24;93332.25;5106716;28;20016;-74
2022/05/29 03:56:30;;;;;;;14.50;4.65;;;;;;;16.11;81.36;93328.13;5106654;28;20027;-74
2022/05/29 03:58:56;;;;;;;14.48;4.45;;;;;;;16.20;81.32;93313.28;5106530;28;20085;-75
2022/05/29 04:01:22;;;;;;;10.80;5.00;;;;;;;16.25;81.34;93315.66;5106733;28;20039;-75
2022/05/29 04:03:49;;;;;;;13.25;4.85;;;;;;;16.34;80.91;93306.56;5106599;28;20023;-74
2022/05/29 04:06:15;;;;;;;12.00;4.97;;;;;;;16.39;80.65;93308.97;5106777;28;20024;-74
2022/05/29 04:14:09;;;;;;;13.63;5.22;;;;;;;16.65;79.59;93290.09;5106410;28;20274;-75
2022/05/29 04:16:34;;;;;;;11.82;4.40;;;;;;;16.75;78.86;93295.97;5106515;28;20020;-74
2022/05/29 04:19:00;;;;;;;23.38;6.82;;;;;;;16.83;78.54;93286.88;5106414;28;20024;-74
2022/05/29 04:21:25;;;;;;;9.80;4.13;;;;;;;16.95;76.75;93292.00;5106430;28;20028;-74
2022/05/29 04:23:51;;;;;;;8.15;3.55;;;;;;;17.05;76.31;93291.34;5106286;28;20038;-74
2022/05/29 04:26:18;;;;;;;13.48;3.92;;;;;;;17.13;75.55;93291.44;5106235;28;20322;-74
2022/05/29 04:28:44;;;;;;;13.18;2.60;;;;;;;17.20;74.97;93297.69;5106011;28;20255;-74
2022/05/29 04:31:10;;;;;;;11.40;3.00;;;;;;;17.25;74.32;93304.66;5088132;28;20020;-74
2022/05/29 04:33:36;;;;;;;13.18;2.90;;;;;;;17.32;75.62;93302.06;5106181;28;20061;-74
2022/05/29 04:36:02;;;;;;;7.47;2.75;;;;;;;17.35;75.88;93309.38;5087863;28;20031;-74
2022/05/29 04:38:28;;;;;;;14.00;4.15;;;;;;;17.35;74.88;93317.47;5104797;28;20211;-74
2022/05/29 04:40:54;;;;;;;8.70;4.88;;;;;;;17.31;76.41;93315.88;5105919;28;20051;-74
2022/05/29 04:43:20;;;;;;;15.23;6.22;;;;;;;17.23;76.87;93323.09;5105882;28;20016;-74
2022/05/29 04:45:46;;;;;;;12.55;5.38;;;;;;;17.10;75.78;93319.13;5105901;28;20024;-74
2022/05/29 04:48:14;;;;;;;20.17;5.60;;;;;;;17.17;76.79;93322.66;5105774;28;20024;-75
2022/05/29 04:50:40;;;;;;;15.95;5.00;;;;;;;17.17;76.99;93332.66;5105725;28;20012;-74
2022/05/29 04:53:06;;;;;;;15.18;4.97;;;;;;;17.20;76.73;93329.25;5105742;28;20020;-74
2022/05/29 04:55:32;;;;;;;12.90;5.65;;;;;;;17.18;77.15;93323.44;5105597;28;20089;-74
2022/05/29 04:57:57;;;;;;;15.27;5.22;;;;;;;17.14;77.55;93320.72;5105710;28;20249;-74
2022/05/29 05:00:23;;;;;;;22.40;6.40;;;;;;;17.20;77.22;93321.94;5105617;28;20091;-74
2022/05/29 05:02:48;;;;;;;19.05;7.40;;;;;;;17.34;76.65;93315.13;5105522;28;20047;-74
2022/05/29 05:05:14;;;;;;;16.95;7.18;;;;;;;17.26;78.50;93319.69;5105718;28;20035;-75
2022/05/29 05:07:40;;;;;;;13.18;6.88;;;;;;;16.99;78.79;93314.38;5105439;28;20027;-74
2022/05/29 05:10:11;;;;;;;14.05;6.90;;;;;;;16.99;78.61;93311.66;5105433;28;20262;-74
2022/05/29 05:12:38;;;;;;;21.55;6.60;;;;;;;16.97;79.20;93322.03;5105435;28;20040;-74
2022/05/29 05:15:04;;;;;;;21.02;7.35;;;;;;;17.08;79.01;93326.78;5105177;28;20027;-74
2022/05/29 05:17:29;;;;;;;14.27;6.45;;;;;;;17.04;78.38;93324.06;5105165;28;20046;-74
2022/05/29 05:19:54;;;;;;;25.38;6.95;;;;;;;17.09;78.97;93322.94;5105457;28;20028;-74
2022/05/29 05:22:20;;;;;;;21.77;6.53;;;;;;;17.15;78.41;93327.63;5105141;28;20023;-73
2022/05/29 05:24:45;;;;;;;16.92;6.35;;;;;;;17.31;77.91;93316.66;5104960;28;20024;-74
2022/05/29 05:27:12;;;;;;;24.45;7.15;;;;;;;17.49;78.01;93319.53;5105098;28;20061;-73
2022/05/29 05:29:37;;;;;;;16.45;6.20;;;;;;;17.56;76.17;93316.91;5105032;28;20020;-74
2022/05/29 05:32:03;;;;;;;20.30;7.18;;;;;;;17.67;76.46;93318.94;5104905;28;20375;-74
2022/05/29 05:34:28;;;;;;;18.55;6.93;;;;;;;17.75;76.61;93321.34;5086661;28;20322;-74
2022/05/29 05:36:55;;;;;;;23.80;6.68;;;;;;;17.79;76.30;93322.16;5104810;28;20210;-74
2022/05/29 05:39:21;;;;;;;15.98;5.30;;;;;;;17.93;75.39;93320.75;5104673;28;20345;-74
2022/05/29 05:41:47;;;;;;;10.18;4.75;;;;;;;18.15;72.85;93314.38;5104553;28;20102;-74
2022/05/29 05:44:13;;;;;;;13.68;3.83;;;;;;;18.36;70.70;93313.75;5104759;28;20019;-73
2022/05/29 05:46:53;;;;;;;13.00;3.97;;;;;;;18.53;69.25;93309.63;5104470;28;20349;-74
2022/05/29 05:49:20;;;;;;;13.95;3.85;;;;;;;18.74;69.28;93308.19;5104195;28;20027;-74
2022/05/29 05:51:46;;;;;;;16.73;4.93;;;;;;;18.93;67.98;93313.34;5104546;28;20337;-74
2022/05/29 05:54:12;;;;;;;13.52;3.40;;;;;;;19.13;67.28;93303.00;5104506;28;20043;-74
2022/05/29 05:56:42;;;;;;;9.40;3.05;;;;;;;19.24;65.63;93297.63;5104577;28;20281;-74
2022/05/29 05:59:07;;;;;;;7.25;2.92;;;;;;;19.34;64.76;93302.31;5104205;28;20072;-75
2022/05/29 06:01:33;;;;;;;9.98;3.63;;;;;;;19.34;65.05;93296.91;5104341;28;20028;-75
2022/05/29 06:03:58;;;;;;;9.07;2.90;;;;;;;19.38;64.93;93305.03;5104357;28;20039;-74
2022/05/29 06:06:24;;;;;;;19.38;3.67;;;;;;;19.44;64.72;93312.38;5104016;28;20027;-73
2022/05/29 06:08:49;;;;;;;9.93;2.75;;;;;;;19.52;63.74;93312.38;5103974;28;20038;-74
2022/05/29 06:11:15;;;;;;;9.25;3.00;;;;;;;19.50;63.68;93315.47;5104184;28;20055;-74
2022/05/29 06:13:41;;;;;;;9.10;3.03;;;;;;;19.53;64.27;93312.00;5103992;28;20047;-73
2022/05/29 06:16:06;;;;;;;9.98;3.08;;;;;;;19.65;64.19;93289.25;5103900;28;20095;-74
2022/05/29 06:18:32;;;;;;;13.07;3.60;;;;;;;19.68;63.99;93282.28;5103804;28;20081;-74
2022/05/29 06:21:00;;;;;;;12.50;3.45;;;;;;;19.79;63.77;93283.88;5104027;28;20024;-74
2022/05/29 06:23:27;;;;;;;10.98;2.88;;;;;;;19.90;63.29;93288.50;5103848;28;20019;-74
2022/05/29 06:25:53;;;;;;;10.00;2.60;;;;;;;19.97;63.93;93277.72;5103846;28;20036;-75
2022/05/29 06:28:18;;;;;;;13.65;2.95;;;;;;;20.08;62.78;93281.16;5103707;28;20034;-76
2022/05/29 06:30:44;;;;;;;8.50;3.47;;;;;;;20.17;61.13;93278.06;5103413;28;20110;-76
2022/05/29 06:33:11;;;;;;;7.28;3.15;;;;;;;20.28;60.48;93272.66;5103282;28;20235;-74
2022/05/29 06:35:36;;;;;;;10.68;3.10;;;;;;;20.33;60.78;93272.25;5103497;28;20315;-73
2022/05/29 06:38:02;;;;;;;7.40;2.85;;;;;;;20.49;59.83;93264.50;5103314;28;20089;-74
2022/05/29 06:40:27;;;;;;;11.98;3.95;;;;;;;20.63;58.40;93256.38;5103246;28;20040;-74
2022/05/29 06:42:53;;;;;;;13.75;2.85;;;;;;;20.74;57.96;93255.56;5103376;28;20027;-74
2022/05/29 06:45:18;;;;;;;8.70;2.33;;;;;;;20.84;58.09;93252.03;5103397;28;20225;-75
2022/05/29 06:47:44;;;;;;;12.43;2.92;;;;;;;20.93;56.83;93249.69;5103244;28;20027;-75
2022/05/29 06:50:10;;;;;;;11.80;3.22;;;;;;;21.07;56.45;93245.41;5103325;28;20020;-75
2022/05/29 06:52:35;;;;;;;22.25;2.95;;;;;;;21.14;54.84;93243.41;5085030;28;20035;-75
2022/05/29 06:55:04;;;;;;;9.23;2.70;;;;;;;21.27;54.73;93240.25;5103044;28;20039;-75
2022/05/29 06:57:43;;;;;;;17.05;3.42;;;;;;;21.34;53.74;93224.72;5103263;28;20237;-76
2022/05/29 07:08:30;;;;;;;11.90;4.38;;;;;;;21.64;53.47;93226.88;5102921;28;20031;-76
2022/05/29 07:11:20;;;;;;;14.18;2.95;;;;;;;21.74;53.29;93230.69;5103205;28;20024;-77
2022/05/29 07:13:47;;;;;;;13.13;3.22;;;;;;;21.79;52.70;93232.19;5102927;28;20092;-76
2022/05/29 07:16:12;;;;;;;11.43;3.08;;;;;;;21.87;52.64;93227.50;5084846;28;20024;-76
2022/05/29 07:18:37;;;;;;;21.15;3.92;;;;;;;21.91;53.29;93218.16;5102819;28;20072;-76
2022/05/29 07:21:05;;;;;;;13.93;3.70;;;;;;;21.93;52.75;93217.75;5102684;28;20038;-77
2022/05/29 07:23:31;;;;;;;15.25;3.28;;;;;;;22.01;52.58;93217.28;5102604;28;20023;-76
2022/05/29 07:25:57;;;;;;;10.70;3.45;;;;;;;22.07;51.31;93223.06;5103181;28;20096;-76
2022/05/29 07:28:23;;;;;;;12.65;2.72;;;;;;;22.10;52.06;93224.19;5102695;28;20073;-77
2022/05/29 07:30:50;;;;;;;8.13;3.47;;;;;;;22.10;52.80;93227.66;5102719;28;20012;-76
2022/05/29 07:33:16;;;;;;;14.82;3.78;;;;;;;22.18;52.59;93218.28;5102420;28;20020;-74
2022/05/29 07:35:41;;;;;;;9.25;3.45;;;;;;;22.22;51.78;93227.16;5101200;28;20345;-73
2022/05/29 07:38:07;;;;;;;11.23;2.53;;;;;;;22.27;51.58;93227.94;5083042;28;20051;-74
2022/05/29 07:40:32;;;;;;;12.30;3.63;;;;;;;22.29;52.13;93225.56;5102428;28;20059;-74
2022/05/29 07:45:42;;;;;;;9.93;2.70;;;;;;;22.38;52.91;93220.47;5102539;28;20226;-74
2022/05/29 07:48:08;;;;;;;17.35;3.28;;;;;;;22.49;51.63;93226.56;5100578;28;20087;-74
2022/05/29 07:50:34;;;;;;;12.77;4.22;;;;;;;22.59;52.18;93217.53;5101041;28;20019;-74
2022/05/29 07:52:59;;;;;;;12.77;3.40;;;;;;;22.66;52.00;93221.34;5100860;28;20223;-74
2022/05/29 07:55:25;;;;;;;7.90;4.15;;;;;;;22.70;51.07;93230.97;5100712;28;20121;-74
2022/05/29 07:57:51;;;;;;;15.00;3.30;;;;;;;22.69;51.52;93223.25;5100647;28;20103;-74
2022/05/29 08:00:19;;;;;;;9.52;3.25;;;;;;;22.77;51.08;93221.97;5100766;28;20249;-74
2022/05/29 08:02:45;;;;;;;10.40;3.75;;;;;;;22.86;50.74;93227.69;5102083;28;20319;-74
2022/05/29 08:05:12;;;;;;;13.40;4.10;;;;;;;22.92;50.79;93223.38;5102589;28;20027;-74
2022/05/29 08:07:39;;;;;;;16.95;4.25;;;;;;;22.90;50.78;93214.06;5102406;28;20043;-74
2022/05/29 08:10:06;;;;;;;15.10;3.90;;;;;;;22.90;51.13;93212.13;5102324;28;20019;-74
2022/05/29 08:12:31;;;;;;;10.02;2.55;;;;;;;22.91;50.38;93205.50;5103763;28;20228;-74
2022/05/29 08:14:57;;;;;;;12.85;2.70;;;;;;;23.00;50.23;93211.22;5106177;28;20016;-74
2022/05/29 08:17:22;;;;;;;10.38;3.05;;;;;;;23.10;50.68;93198.72;5105959;28;20032;-74
2022/05/29 08:19:48;;;;;;;13.35;4.60;;;;;;;23.15;50.68;93202.91;5105908;28;20046;-74
2022/05/29 08:22:13;;;;;;;12.13;3.17;;;;;;;23.17;49.66;93203.28;5105907;28;20027;-74
2022/05/29 08:30:38;;;;;;;11.60;3.60;;;;;;;23.38;48.80;93194.03;5105887;28;20019;-74
2022/05/29 08:33:06;;;;;;;8.80;4.15;;;;;;;23.46;48.50;93194.72;5105640;28;20050;-73
2022/05/29 08:35:33;;;;;;;10.30;3.22;;;;;;;23.58;48.45;93199.59;5105968;28;20047;-74
2022/05/29 08:38:00;;;;;;;16.48;4.70;;;;;;;23.62;48.97;93203.00;5105921;28;20103;-74
2022/05/29 08:40:27;;;;;;;12.60;4.90;;;;;;;23.71;48.82;93199.75;5105443;28;20035;-74
2022/05/29 08:42:52;;;;;;;14.70;4.28;;;;;;;23.81;48.10;93204.31;5105560;28;20053;-74
2022/05/29 08:45:18;;;;;;;14.00;4.00;;;;;;;23.87;47.35;93191.00;5105695;28;20234;-74
2022/05/29 08:47:45;;;;;;;10.75;4.20;;;;;;;23.94;47.75;93196.34;5105692;28;20012;-74
2022/05/29 08:50:18;;;;;;;10.40;3.90;;;;;;;24.03;47.55;93196.56;5105478;28;20016;-74
2022/05/29 08:53:03;;;;;;;12.55;5.03;;;;;;;24.06;47.09;93193.03;5105352;28;20016;-74
2022/05/29 08:55:42;;;;;;;14.50;3.88;;;;;;;24.13;47.03;93186.69;5105695;28;20024;-78
2022/05/29 08:58:19;;;;;;;20.80;4.82;;;;;;;24.25;46.69;93201.66;5105497;28;20113;-76
2022/05/29 09:00:59;;;;;;;14.27;3.90;;;;;;;24.39;45.81;93185.06;5105240;28;20032;-75
2022/05/29 09:03:36;;;;;;;13.38;4.03;;;;;;;24.49;45.98;93194.97;5105177;28;20102;-75
2022/05/29 09:06:17;;;;;;;12.80;3.08;;;;;;;24.62;44.19;93170.63;5105394;28;20032;-75
2022/05/29 09:08:45;;;;;;;17.55;4.03;;;;;;;24.73;44.27;93179.38;5105064;28;20023;-77
2022/05/29 09:11:34;;;;;;;12.30;3.80;;;;;;;24.78;43.85;93170.69;5105010;28;20313;-76
2022/05/29 09:14:15;;;;;;;18.95;5.78;;;;;;;24.82;44.29;93176.06;5086504;28;20319;-76
2022/05/29 09:16:45;;;;;;;12.18;5.00;;;;;;;24.92;43.95;93172.34;5104947;28;20023;-76
2022/05/29 09:19:32;;;;;;;15.70;3.50;;;;;;;24.95;43.93;93176.97;5104815;28;20055;-76
2022/05/29 09:22:11;;;;;;;14.45;3.85;;;;;;;25.07;43.93;93167.38;5104821;28;20031;-77
2022/05/29 09:25:04;;;;;;;15.75;4.68;;;;;;;25.15;43.69;93176.94;5086117;28;20389;-77
2022/05/29 09:27:31;;;;;;;13.20;3.90;;;;;;;25.21;43.59;93163.59;5104865;28;20027;-78
2022/05/29 09:29:57;;;;;;;17.52;4.18;;;;;;;25.25;43.97;93161.56;5104756;28;20020;-77
2022/05/29 09:32:26;;;;;;;12.20;3.35;;;;;;;25.27;43.33;93159.19;5104550;28;20031;-75
2022/05/29 09:35:10;;;;;;;14.27;3.40;;;;;;;25.33;44.05;93154.75;5104535;28;20016;-77
2022/05/29 09:37:47;;;;;;;16.95;4.15;;;;;;;25.39;43.79;93150.31;5104542;28;20264;-77
2022/05/29 09:40:20;;;;;;;11.00;3.70;;;;;;;25.47;43.70;93142.75;5104373;28;20094;-76
2022/05/29 09:42:48;;;;;;;16.25;4.22;;;;;;;25.46;43.46;93151.34;5104220;28;20020;-77
2022/05/29 09:45:26;;;;;;;7.88;2.80;;;;;;;25.52;42.01;93142.22;5104234;28;20020;-77
2022/05/29 09:50:47;;;;;;;15.70;4.40;;;;;;;25.68;43.55;93140.72;5104343;28;20402;-75
2022/05/29 09:53:28;;;;;;;14.70;4.28;;;;;;;25.78;43.33;93128.75;5104254;28;20026;-75
2022/05/29 09:56:01;;;;;;;11.15;3.42;;;;;;;25.93;43.17;93129.19;5104237;28;20195;-74
2022/05/29 09:58:43;;;;;;;15.63;4.72;;;;;;;25.95;43.53;93126.81;5103033;28;20036;-75
2022/05/29 10:01:09;;;;;;;28.13;5.20;;;;;;;25.95;42.87;93126.81;5102318;28;20051;-75
2022/05/29 10:03:52;;;;;;;16.52;5.20;;;;;;;26.03;43.61;93128.16;5103827;28;20032;-74
2022/05/29 10:06:57;;;;;;;12.38;4.47;;;;;;;26.00;43.37;93124.31;5103989;28;20035;-74
2022/05/29 10:09:26;;;;;;;15.07;3.67;;;;;;;25.97;43.30;93119.75;5041989;28;20037;-74
2022/05/29 10:11:58;;;;;;;11.45;3.22;;;;;;;26.01;42.82;93111.44;5041856;28;20143;-73
2022/05/29 10:14:40;;;;;;;16.60;3.55;;;;;;;26.06;43.25;93104.72;5074870;28;20039;-74
2022/05/29 10:17:36;;;;;;;18.52;6.38;;;;;;;26.12;43.21;93101.00;5102155;28;20089;-75
2022/05/29 10:20:02;;;;;;;12.52;3.67;;;;;;;26.05;43.84;93098.47;5100640;28;20028;-74
2022/05/29 10:22:38;;;;;;;17.75;3.83;;;;;;;26.14;43.83;93095.13;5102263;28;20020;-75
2022/05/29 10:25:16;;;;;;;15.90;6.70;;;;;;;26.22;43.96;93102.69;5102529;28;20019;-75
2022/05/29 10:27:47;;;;;;;8.75;4.18;;;;;;;26.37;43.27;93094.09;5102071;28;20260;-74
2022/05/29 10:30:26;;;;;;;16.20;7.78;;;;;;;26.51;43.67;93082.78;5103239;28;20286;-74
2022/05/29 10:33:04;;;;;;;12.75;3.92;;;;;;;26.60;42.88;93080.22;5103470;28;20024;-74
2022/05/29 10:35:32;;;;;;;17.50;5.28;;;;;;;26.60;42.83;93071.22;5103009;28;20026;-74
2022/05/29 10:38:15;;;;;;;16.83;6.40;;;;;;;26.64;42.66;93079.34;5103298;28;20019;-75
2022/05/29 10:40:42;;;;;;;17.85;7.93;;;;;;;26.72;43.43;93078.69;5103253;28;20040;-74
2022/05/29 10:43:08;;;;;;;14.10;4.63;;;;;;;26.85;42.68;93075.19;5103340;28;20383;-74
2022/05/29 10:45:42;;;;;;;12.57;3.75;;;;;;;26.90;42.57;93086.38;5103518;28;20019;-74
2022/05/29 10:48:14;;;;;;;19.42;5.68;;;;;;;27.00;41.53;93070.84;5103439;28;20322;-74
2022/05/29 10:51:04;;;;;;;13.40;5.22;;;;;;;27.06;41.69;93071.06;5103360;28;20024;-74
2022/05/29 10:54:03;;;;;;;16.40;6.97;;;;;;;27.12;42.35;93067.34;5103208;28;20054;-74
2022/05/29 10:57:00;;;;;;;16.27;6.80;;;;;;;27.18;42.22;93070.31;5103185;28;20149;-74
2022/05/29 10:59:31;;;;;;;19.98;5.68;;;;;;;27.25;41.74;93061.88;5102992;28;20077;-75
2022/05/29 11:05:55;;;;;;;15.73;5.97;;;;;;;27.52;42.24;93053.22;5103133;28;20034;-74
2022/05/29 11:08:50;;;;;;;13.82;6.07;;;;;;;27.66;41.49;93053.94;5040952;28;20132;-74
2022/05/29 11:11:25;;;;;;;17.33;7.15;;;;;;;27.72;41.06;93035.75;5102243;28;20074;-75
2022/05/29 11:13:59;;;;;;;18.30;7.68;;;;;;;27.77;40.59;93044.16;5102855;28;20015;-75
2022/05/29 11:16:37;;;;;;;27.58;7.13;;;;;;;27.79;40.45;93036.28;5102711;28;20020;-75
2022/05/29 11:19:19;;;;;;;20.10;10.07;;;;;;;27.84;41.58;93015.78;5102928;28;20025;-74
2022/05/29 11:22:03;;;;;;;16.77;8.23;;;;;;;27.84;39.95;93032.19;5103018;28;20273;-74
2022/05/29 11:24:53;;;;;;;20.88;7.22;;;;;;;27.74;40.66;93028.66;5102863;28;20095;-75
2022/05/29 11:27:24;;;;;;;15.77;7.60;;;;;;;27.71;40.96;93006.84;5102831;28;20047;-75
2022/05/29 11:30:08;;;;;;;15.25;5.03;;;;;;;27.64;40.56;93002.41;5102963;28;20027;-75
2022/05/29 11:32:54;;;;;;;14.32;4.88;;;;;;;27.58;39.88;93004.19;5102844;28;20256;-74
2022/05/29 11:35:27;;;;;;;18.13;5.80;;;;;;;27.58;40.53;93009.66;5102710;28;20039;-74
2022/05/29 11:38:19;;;;;;;11.88;5.28;;;;;;;27.54;42.01;92998.03;5102546;28;20027;-75
2022/05/29 11:40:49;;;;;;;15.77;6.53;;;;;;;27.58;41.23;92983.03;5102505;28;20227;-75
2022/05/29 11:43:21;;;;;;;20.30;9.40;;;;;;;27.62;41.80;92985.66;5102639;28;20091;-75
2022/05/29 11:51:43;;;;;;;13.50;5.40;;;;;;;27.71;40.26;92977.50;5106826;28;20034;-75
2022/05/29 11:54:11;;;;;;;12.77;5.38;;;;;;;27.64;41.34;92985.97;5106477;28;20314;-75
2022/05/29 11:56:47;;;;;;;21.58;7.38;;;;;;;27.62;41.91;92980.19;5106566;28;20102;-75
2022/05/29 11:59:35;;;;;;;17.75;7.07;;;;;;;27.67;41.56;92973.38;5106457;28;20044;-75
2022/05/29 12:02:15;;;;;;;19.48;6.47;;;;;;;27.65;41.53;92978.53;5106308;28;20222;-74
2022/05/29 12:04:50;;;;;;;20.77;9.52;;;;;;;27.69;41.35;92977.19;5106619;28;20146;-74
2022/05/29 12:07:22;;;;;;;21.27;7.72;;;;;;;27.75;40.57;92972.66;5106346;28;20102;-75
2022/05/29 12:09:55;;;;;;;15.65;9.25;;;;;;;27.94;41.44;92976.34;5106390;28;20227;-75
2022/05/29 12:12:27;;;;;;;16.45;5.80;;;;;;;28.04;40.88;92973.66;5106188;28;20318;-75
2022/05/29 12:14:58;;;;;;;21.25;6.22;;;;;;;28.07;40.40;92970.81;5106058;28;20035;-75
2022/05/29 12:18:02;;;;;;;13.00;5.17;;;;;;;28.15;40.16;92965.81;5106207;28;20307;-75
2022/05/29 12:20:41;;;;;;;13.48;5.97;;;;;;;28.25;40.48;92947.47;5074685;28;20044;-74
2022/05/29 12:23:25;;;;;;;16.05;5.68;;;;;;;28.41;40.34;92952.72;5106124;28;20031;-75
2022/05/29 12:26:00;;;;;;;17.23;7.18;;;;;;;28.53;39.51;92960.09;5106205;28;20075;-75